createdAt,value
2019-02-04T00:01:08.410Z,10.87
2019-02-04T00:03:35.791Z,10.70
2019-02-04T00:06:03.500Z,11.13
2019-02-04T00:08:30.900Z,10.30
2019-02-04T00:10:59.344Z,11.83
2019-02-04T00:13:27.015Z,11.63
2019-02-04T00:15:54.506Z,10.70
2019-02-04T00:18:21.946Z,11.00
2019-02-04T00:20:49.406Z,10.93
2019-02-04T00:23:17.291Z,10.90
2019-02-04T00:25:44.670Z,13.28
2019-02-04T00:28:12.139Z,12.97
2019-02-04T00:30:39.651Z,13.20
2019-02-04T00:33:07.130Z,11.87
2019-02-04T00:35:34.548Z,12.30
2019-02-04T00:38:01.970Z,12.27
2019-02-04T00:40:29.895Z,12.60
2019-02-04T00:42:57.320Z,12.63
2019-02-04T00:45:24.780Z,14.00
2019-02-04T00:47:52.385Z,13.63
2019-02-04T00:50:19.990Z,13.90
2019-02-04T00:52:47.420Z,15.23
2019-02-04T00:55:15.069Z,14.87
2019-02-04T00:57:42.899Z,15.03
2019-02-04T01:00:29.840Z,15.30
2019-02-04T01:02:57.734Z,16.23
2019-02-04T01:05:25.509Z,15.90
2019-02-04T01:07:53.140Z,15.87
2019-02-04T01:10:22.890Z,14.97
2019-02-04T01:12:50.431Z,14.63
2019-02-04T01:15:17.995Z,18.27
2019-02-04T01:17:45.560Z,15.70
2019-02-04T01:20:19.041Z,18.40
2019-02-04T01:22:46.610Z,17.70
2019-02-04T01:25:14.090Z,18.83
2019-02-04T01:27:41.525Z,17.83
2019-02-04T01:30:10.020Z,19.57
2019-02-04T01:32:37.495Z,18.77
2019-02-04T01:35:05.010Z,19.87
2019-02-04T01:37:32.904Z,19.63
2019-02-04T01:40:00.928Z,19.00
2019-02-04T01:42:28.387Z,19.87
2019-02-04T01:44:55.782Z,19.40
2019-02-04T01:47:23.177Z,19.67
2019-02-04T01:49:50.751Z,20.03
2019-02-04T01:52:18.175Z,18.90
2019-02-04T01:54:45.610Z,20.37
2019-02-04T01:57:13.335Z,19.13
2019-02-04T01:59:40.786Z,19.33
2019-02-04T02:02:08.200Z,22.67
2019-02-04T02:04:35.695Z,27.20
2019-02-04T02:07:03.625Z,28.20
2019-02-04T02:09:31.071Z,27.97
2019-02-04T02:11:58.440Z,27.70
2019-02-04T02:14:25.989Z,30.07
2019-02-04T02:16:53.527Z,29.13
2019-02-04T02:19:20.960Z,27.60
2019-02-04T02:21:48.364Z,27.37
2019-02-04T02:24:15.815Z,26.63
2019-02-04T02:26:43.190Z,26.50
2019-02-04T02:29:12.010Z,28.87
2019-02-04T02:31:39.420Z,28.37
2019-02-04T02:34:06.887Z,27.60
2019-02-04T02:36:34.289Z,25.83
2019-02-04T02:39:01.818Z,26.97
2019-02-04T02:41:29.205Z,26.70
2019-02-04T02:43:56.650Z,26.40
2019-02-04T02:46:24.645Z,27.40
2019-02-04T02:48:52.087Z,17.73
2019-02-04T02:51:19.472Z,24.27
2019-02-04T02:53:46.930Z,25.17
2019-02-04T02:56:14.310Z,25.30
2019-02-04T02:58:41.830Z,25.47
2019-02-04T03:01:09.480Z,26.63
2019-02-04T03:03:39.388Z,27.37
2019-02-04T03:06:06.845Z,26.77
2019-02-04T03:08:34.275Z,27.90
2019-02-04T03:11:01.710Z,27.93
2019-02-04T03:13:29.185Z,28.13
2019-02-04T03:15:56.655Z,25.43
2019-02-04T03:18:24.005Z,27.50
2019-02-04T03:20:51.575Z,29.87
2019-02-04T03:23:18.972Z,27.60
2019-02-04T03:25:46.385Z,28.23
2019-02-04T03:28:13.784Z,29.03
2019-02-04T03:30:41.225Z,29.40
2019-02-04T03:33:08.613Z,28.13
2019-02-04T03:35:36.050Z,28.93
2019-02-04T03:38:03.528Z,27.90
2019-02-04T03:40:32.191Z,30.33
2019-02-04T03:42:59.585Z,27.53
2019-02-04T03:45:27.142Z,30.67
2019-02-04T03:48:04.333Z,26.77
2019-02-04T03:50:24.062Z,27.47
2019-02-04T03:52:52.070Z,26.70
2019-02-04T03:55:19.801Z,28.40
2019-02-04T03:57:47.193Z,27.17
2019-02-04T04:00:23.461Z,28.00
2019-02-04T04:02:51.065Z,27.87
2019-02-04T04:05:18.866Z,27.70
2019-02-04T04:07:46.321Z,23.43
2019-02-04T04:10:13.958Z,25.83
2019-02-04T04:12:41.428Z,26.83
2019-02-04T04:15:09.555Z,28.23
2019-02-04T04:17:36.916Z,28.90
2019-02-04T04:20:05.570Z,31.17
2019-02-04T04:22:33.390Z,28.30
2019-02-04T04:25:00.810Z,30.23
2019-02-04T04:27:28.262Z,31.33
2019-02-04T04:29:55.661Z,32.80
2019-02-04T04:32:23.116Z,23.33
2019-02-04T04:34:50.560Z,33.50
2019-02-04T04:37:18.024Z,30.30
2019-02-04T04:39:46.252Z,31.73
2019-02-04T04:42:13.710Z,30.40
2019-02-04T04:44:41.071Z,30.07
2019-02-04T04:47:08.626Z,28.97
2019-02-04T04:49:36.120Z,28.90
2019-02-04T04:52:03.771Z,22.67
2019-02-04T04:54:31.150Z,22.57
2019-02-04T04:56:58.950Z,21.70
2019-02-04T04:59:26.345Z,21.90
2019-02-04T05:01:53.887Z,24.17
2019-02-04T05:04:21.335Z,25.13
2019-02-04T05:06:48.770Z,24.00
2019-02-04T05:09:16.201Z,21.63
2019-02-04T05:11:43.620Z,22.90
2019-02-04T05:14:11.470Z,21.73
2019-02-04T05:16:38.950Z,17.53
2019-02-04T05:19:06.340Z,21.53
2019-02-04T05:21:33.786Z,20.83
2019-02-04T05:24:01.205Z,17.97
2019-02-04T05:26:28.715Z,20.63
2019-02-04T05:28:56.090Z,16.33
2019-02-04T05:31:23.536Z,17.37
2019-02-04T05:33:50.930Z,17.87
2019-02-04T05:36:18.390Z,18.03
2019-02-04T05:38:45.770Z,13.27
2019-02-04T05:41:13.185Z,17.27
2019-02-04T05:43:40.645Z,17.67
2019-02-04T05:46:08.187Z,17.13
2019-02-04T05:48:35.616Z,17.87
2019-02-04T05:51:03.036Z,18.97
2019-02-04T05:53:30.520Z,17.93
2019-02-04T05:55:57.906Z,16.83
2019-02-04T05:58:25.370Z,15.73
2019-02-04T06:00:52.853Z,14.53
2019-02-04T06:03:20.331Z,19.93
2019-02-04T06:05:47.740Z,18.67
2019-02-04T06:08:15.191Z,19.53
2019-02-04T06:10:42.661Z,15.53
2019-02-04T06:13:10.272Z,16.47
2019-02-04T06:15:37.835Z,18.20
2019-02-04T06:18:05.761Z,15.73
2019-02-04T06:20:33.633Z,19.37
2019-02-04T06:23:01.111Z,17.80
2019-02-04T06:25:34.448Z,18.80
2019-02-04T06:28:01.901Z,14.50
2019-02-04T06:30:29.345Z,16.00
2019-02-04T06:32:56.798Z,15.60
2019-02-04T06:35:24.177Z,17.40
2019-02-04T06:37:51.740Z,17.87
2019-02-04T06:40:19.184Z,16.87
2019-02-04T06:42:46.581Z,18.83
2019-02-04T06:45:14.232Z,16.13
2019-02-04T06:47:41.620Z,17.50
2019-02-04T06:50:11.410Z,17.97
2019-02-04T06:52:39.188Z,17.83
2019-02-04T06:55:09.980Z,17.00
2019-02-04T06:57:37.400Z,12.77
2019-02-04T07:00:06.605Z,12.87
2019-02-04T07:02:34.000Z,18.07
2019-02-04T07:05:01.588Z,15.97
2019-02-04T07:07:28.955Z,14.93
2019-02-04T07:09:56.643Z,17.43
2019-02-04T07:12:24.016Z,13.83
2019-02-04T07:14:51.710Z,12.57
2019-02-04T07:17:19.132Z,15.30
2019-02-04T07:19:46.596Z,12.87
2019-02-04T07:22:13.976Z,12.90
2019-02-04T07:24:43.109Z,15.70
2019-02-04T07:27:10.815Z,14.93
2019-02-04T07:29:38.405Z,15.37
2019-02-04T07:32:05.800Z,13.63
2019-02-04T07:34:33.256Z,13.90
2019-02-04T07:37:00.670Z,14.30
2019-02-04T07:39:28.095Z,14.83
2019-02-04T07:41:55.501Z,13.90
2019-02-04T07:44:23.363Z,14.80
2019-02-04T07:46:50.827Z,13.60
2019-02-04T07:49:18.245Z,12.77
2019-02-04T07:51:45.675Z,9.80
2019-02-04T07:54:13.110Z,12.70
2019-02-04T07:56:40.511Z,13.47
2019-02-04T07:59:08.010Z,14.03
2019-02-04T08:01:35.760Z,11.23
2019-02-04T08:04:03.290Z,12.47
2019-02-04T08:06:30.720Z,12.57
2019-02-04T08:08:58.176Z,13.67
2019-02-04T08:11:25.614Z,12.47
2019-02-04T08:13:53.090Z,12.57
2019-02-04T08:16:20.568Z,11.67
2019-02-04T08:18:47.970Z,11.93
2019-02-04T08:21:15.410Z,9.43
2019-02-04T08:23:42.846Z,11.57
2019-02-04T08:26:10.320Z,12.93
2019-02-04T08:28:37.792Z,9.37
2019-02-04T08:31:05.355Z,14.50
2019-02-04T08:33:32.744Z,13.83
2019-02-04T08:36:00.611Z,10.77
2019-02-04T08:38:28.018Z,10.87
2019-02-04T08:40:55.455Z,11.03
2019-02-04T08:43:22.886Z,11.63
2019-02-04T08:45:50.350Z,12.20
2019-02-04T08:48:17.828Z,11.23
2019-02-04T08:50:45.280Z,9.77
2019-02-04T08:53:13.042Z,11.83
2019-02-04T08:55:40.500Z,13.40
2019-02-04T08:58:08.159Z,12.70
2019-02-04T09:00:35.687Z,10.53
2019-02-04T09:03:03.198Z,11.37
2019-02-04T09:05:30.628Z,11.33
2019-02-04T09:07:58.039Z,11.07
2019-02-04T09:10:30.312Z,9.23
2019-02-04T09:12:58.315Z,9.27
2019-02-04T09:15:25.858Z,11.50
2019-02-04T09:17:53.430Z,10.77
2019-02-04T09:20:20.867Z,12.03
2019-02-04T09:22:48.410Z,10.77
2019-02-04T09:25:16.663Z,8.60
2019-02-04T09:27:44.145Z,10.30
2019-02-04T09:30:19.618Z,10.87
2019-02-04T09:32:47.301Z,7.40
2019-02-04T09:35:15.775Z,10.87
2019-02-04T09:37:43.233Z,8.27
2019-02-04T09:40:16.958Z,7.73
2019-02-04T09:42:44.893Z,11.20
2019-02-04T09:45:13.804Z,9.53
2019-02-04T09:47:41.323Z,8.10
2019-02-04T09:50:21.515Z,10.73
2019-02-04T09:52:40.569Z,10.93
2019-02-04T09:55:12.571Z,8.17
2019-02-04T09:57:40.388Z,7.37
2019-02-04T10:00:10.201Z,10.23
2019-02-04T10:02:37.638Z,6.83
2019-02-04T10:05:06.154Z,8.17
2019-02-04T10:07:33.612Z,9.57
2019-02-04T10:10:01.013Z,8.87
2019-02-04T10:12:28.534Z,10.00
2019-02-04T10:14:56.453Z,10.80
2019-02-04T10:17:24.015Z,7.23
2019-02-04T10:19:51.511Z,8.67
2019-02-04T10:22:19.071Z,8.40
2019-02-04T10:24:46.547Z,8.90
2019-02-04T10:27:13.996Z,8.90
2019-02-04T10:29:41.529Z,7.83
2019-02-04T10:32:09.088Z,7.03
2019-02-04T10:34:36.681Z,8.43
2019-02-04T10:37:04.230Z,5.47
2019-02-04T10:39:31.722Z,8.07
2019-02-04T10:41:59.151Z,7.43
2019-02-04T10:44:26.526Z,5.77
2019-02-04T10:46:54.307Z,7.53
2019-02-04T10:49:21.735Z,6.80
2019-02-04T10:51:49.266Z,7.53
2019-02-04T10:54:16.833Z,7.23
2019-02-04T10:56:44.233Z,7.00
2019-02-04T10:59:11.727Z,7.03
2019-02-04T11:01:39.194Z,5.63
2019-02-04T11:04:06.892Z,7.20
2019-02-04T11:06:34.424Z,6.37
2019-02-04T11:09:01.937Z,6.33
2019-02-04T11:11:29.430Z,6.70
2019-02-04T11:13:57.013Z,4.50
2019-02-04T11:16:24.904Z,6.33
2019-02-04T11:18:52.592Z,6.77
2019-02-04T11:21:20.027Z,7.17
2019-02-04T11:23:47.487Z,6.40
2019-02-04T11:26:15.513Z,6.63
2019-02-04T11:28:43.616Z,6.50
2019-02-04T11:31:11.812Z,6.93
2019-02-04T11:33:39.891Z,5.63
2019-02-04T11:36:07.946Z,7.00
2019-02-04T11:38:36.207Z,5.67
2019-02-04T11:41:04.033Z,5.73
2019-02-04T11:43:31.563Z,6.73
2019-02-04T11:45:59.074Z,4.37
2019-02-04T11:48:26.716Z,6.17
2019-02-04T11:50:54.212Z,5.80
2019-02-04T11:53:32.250Z,6.50
2019-02-04T11:55:50.979Z,6.50
2019-02-04T11:58:18.472Z,6.73
2019-02-04T12:00:45.994Z,6.27
2019-02-04T12:03:14.512Z,6.23
2019-02-04T12:05:41.946Z,6.73
2019-02-04T12:08:09.996Z,6.20
2019-02-04T12:10:40.690Z,6.40
2019-02-04T12:13:08.099Z,6.20
2019-02-04T12:15:35.836Z,5.10
2019-02-04T12:18:03.486Z,5.40
2019-02-04T12:20:30.967Z,5.50
2019-02-04T12:29:09.416Z,5.83
2019-02-04T12:31:37.377Z,6.27
2019-02-04T12:34:07.284Z,5.30
2019-02-04T12:36:34.886Z,5.67
2019-02-04T12:39:10.599Z,6.70
2019-02-04T12:41:37.872Z,5.17
2019-02-04T12:44:07.066Z,4.90
2019-02-04T12:46:34.666Z,5.90
2019-02-04T12:49:42.075Z,5.30
2019-02-04T12:53:04.660Z,5.60
2019-02-04T12:55:32.511Z,5.60
2019-02-04T12:58:00.152Z,6.60
2019-02-04T13:04:13.481Z,4.27
2019-02-04T13:29:07.306Z,5.20
2019-02-04T13:34:47.976Z,4.77
2019-02-04T15:55:05.805Z,5.20
2019-02-04T16:14:15.817Z,3.53
2019-02-04T16:15:42.972Z,4.17
2019-02-04T16:18:49.980Z,4.57
2019-02-04T16:19:01.816Z,4.40
2019-02-04T17:25:23.435Z,4.23
2019-02-04T17:39:15.295Z,3.93
2019-02-04T18:03:50.408Z,4.23
2019-02-04T18:07:31.898Z,3.50
2019-02-04T18:32:39.979Z,3.67
2019-02-04T18:39:13.251Z,4.07
2019-02-04T18:42:02.610Z,4.00
2019-02-04T18:45:33.998Z,4.20
2019-02-04T18:49:19.785Z,3.97
2019-02-04T19:27:53.358Z,3.70
2019-02-04T21:28:44.186Z,2.83
2019-02-04T21:31:12.132Z,3.87
2019-02-04T21:33:40.175Z,4.00
2019-02-04T21:36:08.751Z,4.10
2019-02-04T21:38:37.861Z,4.70
2019-02-04T21:41:05.842Z,3.43
2019-02-04T21:43:33.706Z,4.37
2019-02-04T21:46:01.759Z,4.27
2019-02-04T21:48:30.651Z,3.80
2019-02-04T21:50:58.726Z,4.73
2019-02-04T21:53:26.696Z,3.93
2019-02-04T21:55:54.611Z,3.03
2019-02-04T21:58:22.586Z,4.13
2019-02-04T22:00:50.387Z,4.20
2019-02-04T22:03:18.286Z,3.97
2019-02-04T22:05:46.310Z,4.10
2019-02-04T22:08:13.891Z,3.93
2019-02-04T22:10:42.091Z,3.77
2019-02-04T22:13:09.756Z,4.40
2019-02-04T22:15:38.026Z,4.37
2019-02-04T22:18:06.186Z,4.17
2019-02-04T22:20:34.192Z,3.87
2019-02-04T22:23:01.718Z,2.90
2019-02-04T22:25:29.245Z,3.77
2019-02-04T22:27:56.636Z,3.70
2019-02-04T22:30:25.921Z,3.77
2019-02-04T22:32:53.401Z,3.27
2019-02-04T22:35:20.987Z,3.40
2019-02-04T22:37:48.617Z,4.10
2019-02-04T22:40:29.743Z,3.80
2019-02-04T22:42:57.898Z,3.60
2019-02-04T22:45:25.461Z,3.20
2019-02-04T22:47:52.873Z,3.63
2019-02-04T22:50:27.161Z,3.83
2019-02-04T22:52:54.958Z,3.80
2019-02-04T22:55:31.475Z,4.03
2019-02-04T22:57:52.255Z,3.63
2019-02-04T23:00:58.778Z,4.10
2019-02-04T23:03:26.601Z,3.67
2019-02-04T23:05:54.182Z,3.50
2019-02-04T23:08:21.945Z,3.27
2019-02-04T23:10:49.526Z,3.90
2019-02-04T23:13:17.087Z,3.43
2019-02-04T23:15:44.637Z,3.83
2019-02-04T23:18:12.473Z,3.00
2019-02-04T23:20:40.066Z,3.67
2019-02-04T23:23:08.042Z,3.83
2019-02-04T23:25:42.976Z,3.03
2019-02-04T23:28:05.326Z,3.20
2019-02-04T23:30:32.916Z,3.73
2019-02-04T23:33:00.917Z,4.03
2019-02-04T23:35:28.366Z,3.87
2019-02-04T23:37:55.788Z,3.83
2019-02-04T23:40:23.228Z,3.37
2019-02-04T23:42:50.756Z,3.23
2019-02-04T23:45:18.310Z,3.53
2019-02-04T23:47:45.781Z,3.13
2019-02-04T23:50:13.883Z,3.57
2019-02-04T23:52:41.336Z,3.67
2019-02-04T23:55:08.966Z,3.00
2019-02-04T23:57:36.486Z,3.30
